createdAt,value
2022-09-01T00:00:24.035Z,93499.19
2022-09-01T00:05:27.347Z,93505.31
2022-09-01T00:10:30.411Z,93491.63
2022-09-01T00:15:35.258Z,93470.31
2022-09-01T00:20:38.332Z,93492.59
2022-09-01T00:25:41.412Z,93430.69
2022-09-01T00:30:44.401Z,93499.06
2022-09-01T00:35:48.247Z,93475.34
2022-09-01T00:40:51.375Z,93497.84
2022-09-01T00:45:55.080Z,93497.22
2022-09-01T00:50:58.707Z,93480.22
2022-09-01T00:56:03.297Z,93479.44
2022-09-01T01:01:08.908Z,93471.06
2022-09-01T01:06:14.120Z,93448.91
2022-09-01T01:11:20.312Z,93470.47
2022-09-01T01:16:24.539Z,93476.84
2022-09-01T01:22:00.298Z,93430.81
2022-09-01T01:27:05.115Z,93477.91
2022-09-01T01:32:13.562Z,93479.44
2022-09-01T01:37:16.507Z,93470.56
2022-09-01T01:42:19.935Z,93446.56
2022-09-01T01:47:23.719Z,93469.94
2022-09-01T01:52:27.642Z,93469.47
2022-09-01T01:57:34.930Z,93457.78
2022-09-01T02:02:40.385Z,93452.31
2022-09-01T02:07:43.853Z,93470.53
2022-09-01T02:12:47.439Z,93464.13
2022-09-01T02:17:51.126Z,93447.81
2022-09-01T02:22:55.704Z,93458.50
2022-09-01T02:28:00.785Z,93429.88
2022-09-01T02:33:05.638Z,93414.53
2022-09-01T02:38:09.112Z,93421.72
2022-09-01T02:43:14.132Z,93420.03
2022-09-01T02:48:18.992Z,93404.94
2022-09-01T02:53:23.242Z,93411.34
2022-09-01T02:58:28.083Z,93411.34
2022-09-01T03:03:31.648Z,93408.69
2022-09-01T03:08:37.060Z,93388.91
2022-09-01T03:13:42.342Z,93391.72
2022-09-01T03:18:45.411Z,93405.34
2022-09-01T03:23:51.194Z,93411.13
2022-09-01T03:28:54.638Z,93392.91
2022-09-01T03:34:00.857Z,93408.53
2022-09-01T03:39:14.553Z,93373.56
2022-09-01T03:44:19.989Z,93388.09
2022-09-01T03:49:25.455Z,93361.94
2022-09-01T03:54:30.696Z,93372.28
2022-09-01T03:59:34.885Z,93395.59
2022-09-01T04:04:37.954Z,93412.59
2022-09-01T04:09:42.728Z,93407.44
2022-09-01T04:14:48.716Z,93414.72
2022-09-01T04:19:52.258Z,93406.72
2022-09-01T04:24:56.549Z,93389.84
2022-09-01T04:30:01.940Z,93396.06
2022-09-01T04:35:11.963Z,93394.75
2022-09-01T04:40:15.779Z,93401.03
2022-09-01T04:45:25.515Z,93392.03
2022-09-01T04:50:31.112Z,93390.38
2022-09-01T04:55:55.107Z,93381.97
2022-09-01T05:01:06.662Z,93355.50
2022-09-01T05:06:15.328Z,93351.81
2022-09-01T05:11:24.247Z,93378.88
2022-09-01T05:16:36.468Z,93374.94
2022-09-01T05:21:40.501Z,93379.34
2022-09-01T05:26:47.116Z,93385.31
2022-09-01T05:31:50.650Z,93366.22
2022-09-01T05:36:59.666Z,93362.63
2022-09-01T05:42:05.605Z,93375.00
2022-09-01T05:47:10.078Z,93351.91
2022-09-01T05:52:26.619Z,93365.97
2022-09-01T05:57:35.693Z,93373.94
2022-09-01T06:02:40.268Z,93376.56
2022-09-01T06:07:44.539Z,93371.66
2022-09-01T06:12:50.722Z,93365.28
2022-09-01T06:17:58.944Z,93362.72
2022-09-01T06:23:03.253Z,93336.03
2022-09-01T06:28:08.817Z,93362.50
2022-09-01T06:33:14.352Z,93343.84
2022-09-01T06:38:23.418Z,93330.78
2022-09-01T06:43:28.073Z,93332.22
2022-09-01T06:48:31.521Z,93331.28
2022-09-01T06:53:41.630Z,93322.59
2022-09-01T06:58:49.291Z,93339.47
2022-09-01T07:03:57.083Z,93317.69
2022-09-01T07:09:20.589Z,93326.16
2022-09-01T07:20:29.594Z,93333.72
2022-09-01T07:26:00.518Z,93322.44
2022-09-01T07:47:54.191Z,93344.63
2022-09-01T07:52:59.034Z,93352.00
2022-09-01T07:58:02.264Z,93337.56
2022-09-01T08:03:06.741Z,93353.78
2022-09-01T08:08:29.109Z,93356.81
2022-09-01T08:13:41.695Z,93336.94
2022-09-01T08:18:49.184Z,93364.44
2022-09-01T08:24:04.831Z,93365.50
2022-09-01T08:29:10.475Z,93359.50
2022-09-01T08:34:18.056Z,93363.56
2022-09-01T08:39:22.492Z,93366.28
2022-09-01T08:44:50.415Z,93367.38
2022-09-01T08:49:54.566Z,93349.31
2022-09-01T08:55:32.367Z,93354.44
2022-09-01T09:00:51.469Z,93314.88
2022-09-01T09:06:09.570Z,93348.09
2022-09-01T09:11:34.259Z,93331.81
2022-09-01T09:16:53.334Z,93341.38
2022-09-01T09:22:00.217Z,93335.41
2022-09-01T09:27:04.396Z,93295.75
2022-09-01T09:32:44.251Z,93323.47
2022-09-01T09:37:33.585Z,93331.75
2022-09-01T09:42:40.177Z,93335.88
2022-09-01T09:47:46.743Z,93329.84
2022-09-01T09:52:52.266Z,93335.09
2022-09-01T09:58:00.233Z,93338.38
2022-09-01T10:03:08.026Z,93330.38
2022-09-01T10:08:38.423Z,93355.41
2022-09-01T10:13:42.189Z,93336.63
2022-09-01T10:18:46.831Z,93333.63
2022-09-01T10:23:49.886Z,93320.34
2022-09-01T10:28:55.312Z,93329.94
2022-09-01T10:33:59.927Z,93321.53
2022-09-01T10:39:08.979Z,93311.25
2022-09-01T10:44:20.573Z,93286.34
2022-09-01T10:49:29.838Z,93292.84
2022-09-01T10:54:51.114Z,93285.16
2022-09-01T10:59:56.735Z,93280.13
2022-09-01T11:05:00.340Z,93281.53
2022-09-01T11:10:32.200Z,93287.50
2022-09-01T11:15:42.467Z,93283.84
2022-09-01T11:20:46.111Z,93243.13
2022-09-01T11:31:27.259Z,93292.16
2022-09-01T11:36:53.070Z,93296.47
2022-09-01T11:42:17.286Z,93289.66
2022-09-01T11:47:22.082Z,93310.03
2022-09-01T11:52:30.919Z,93286.47
2022-09-01T11:57:37.485Z,93289.00
2022-09-01T12:02:49.499Z,93304.00
2022-09-01T12:07:53.187Z,93289.69
2022-09-01T12:13:10.820Z,93316.03
2022-09-01T12:18:22.399Z,93322.28
2022-09-01T12:23:46.165Z,93319.34
2022-09-01T12:28:50.079Z,93318.00
2022-09-01T12:33:55.595Z,93301.81
2022-09-01T12:39:18.327Z,93299.41
2022-09-01T12:44:34.716Z,93264.81
2022-09-01T12:49:50.003Z,93296.66
2022-09-01T12:54:59.290Z,93279.66
2022-09-01T13:00:12.426Z,93276.34
2022-09-01T13:05:32.742Z,93275.47
2022-09-01T13:10:43.162Z,93282.81
2022-09-01T13:15:50.660Z,93267.31
2022-09-01T13:20:54.584Z,93269.28
2022-09-01T13:25:59.262Z,93261.81
2022-09-01T13:36:51.105Z,93230.81
2022-09-01T13:41:53.812Z,93233.47
2022-09-01T13:47:00.525Z,93224.19
2022-09-01T13:52:03.929Z,93221.09
2022-09-01T13:57:07.221Z,93218.97
2022-09-01T14:02:11.347Z,93217.34
2022-09-01T14:07:14.270Z,93240.19
2022-09-01T14:12:17.062Z,93227.06
2022-09-01T14:17:19.924Z,93214.31
2022-09-01T14:22:22.941Z,93232.31
2022-09-01T14:27:25.847Z,93225.81
2022-09-01T14:32:29.775Z,93201.63
2022-09-01T14:37:32.699Z,93219.69
2022-09-01T14:42:37.373Z,93226.81
2022-09-01T14:47:40.509Z,93196.13
2022-09-01T14:52:44.075Z,93209.94
2022-09-01T14:57:47.494Z,93219.97
2022-09-01T15:02:50.749Z,93226.19
2022-09-01T15:07:54.175Z,93212.88
2022-09-01T15:12:59.042Z,93219.84
2022-09-01T15:18:02.631Z,93234.09
2022-09-01T15:23:07.412Z,93225.78
2022-09-01T15:28:10.769Z,93220.25
2022-09-01T15:33:15.931Z,93218.22
2022-09-01T15:38:19.232Z,93229.63
2022-09-01T15:43:22.835Z,93231.28
2022-09-01T15:48:27.638Z,93238.09
2022-09-01T15:53:30.652Z,93230.06
2022-09-01T15:58:59.430Z,93243.34
2022-09-01T16:03:58.141Z,93248.56
2022-09-01T16:09:01.269Z,93241.81
2022-09-01T16:14:04.852Z,93251.25
2022-09-01T16:19:39.264Z,93253.69
2022-09-01T16:24:46.420Z,93236.97
2022-09-01T16:29:58.614Z,93253.66
2022-09-01T16:35:04.276Z,93246.88
2022-09-01T16:40:15.334Z,93257.34
2022-09-01T16:45:43.027Z,93254.25
2022-09-01T16:51:04.461Z,93258.84
2022-09-01T16:56:12.186Z,93276.78
2022-09-01T17:01:30.498Z,93275.88
2022-09-01T17:06:46.564Z,93256.81
2022-09-01T17:11:58.720Z,93277.09
2022-09-01T17:17:15.842Z,93281.50
2022-09-01T17:22:20.260Z,93258.50
2022-09-01T17:27:28.262Z,93272.66
2022-09-01T17:33:03.190Z,93262.56
2022-09-01T17:38:25.350Z,93277.81
2022-09-01T17:43:53.381Z,93281.91
2022-09-01T17:49:21.563Z,93257.63
2022-09-01T17:54:50.544Z,93243.28
2022-09-01T18:00:11.200Z,93262.06
2022-09-01T18:05:24.683Z,93244.41
2022-09-01T18:10:39.633Z,93266.88
2022-09-01T18:15:54.369Z,93267.63
2022-09-01T18:21:14.366Z,93294.50
2022-09-01T18:26:34.985Z,93294.88
2022-09-01T18:31:52.869Z,93298.31
2022-09-01T18:37:20.205Z,93292.81
2022-09-01T18:42:30.317Z,93295.16
2022-09-01T18:47:37.122Z,93301.06
2022-09-01T18:52:58.906Z,93318.81
2022-09-01T18:58:34.320Z,93306.94
2022-09-01T19:03:58.417Z,93333.47
2022-09-01T19:09:09.092Z,93296.41
2022-09-01T19:19:30.700Z,93326.38
2022-09-01T19:24:43.737Z,93327.91
2022-09-01T19:29:56.255Z,93329.50
2022-09-01T19:35:07.362Z,93330.69
2022-09-01T19:40:11.596Z,93297.34
2022-09-01T19:45:38.892Z,93333.50
2022-09-01T19:51:00.774Z,93319.84
2022-09-01T19:56:09.503Z,93347.06
2022-09-01T20:01:18.345Z,93319.47
2022-09-01T20:06:43.606Z,93316.78
2022-09-01T20:11:58.410Z,93324.75
2022-09-01T20:17:13.162Z,93332.53
2022-09-01T20:22:21.893Z,93356.25
2022-09-01T20:27:33.562Z,93359.91
2022-09-01T20:33:03.321Z,93352.25
2022-09-01T20:38:35.379Z,93361.44
2022-09-01T20:43:46.078Z,93319.09
2022-09-01T20:48:50.059Z,93353.75
2022-09-01T20:54:15.488Z,93349.00
2022-09-01T20:59:45.535Z,93333.84
2022-09-01T21:05:11.108Z,93349.47
2022-09-01T21:10:59.447Z,93353.25
2022-09-01T21:16:20.399Z,93367.72
2022-09-01T21:21:41.930Z,93371.66
2022-09-01T21:26:44.862Z,93376.03
2022-09-01T21:31:48.762Z,93353.78
2022-09-01T21:36:51.628Z,93360.44
2022-09-01T21:41:58.265Z,93373.66
2022-09-01T21:47:01.493Z,93344.06
2022-09-01T21:52:05.508Z,93365.47
2022-09-01T21:57:08.375Z,93384.56
2022-09-01T22:02:11.341Z,93381.91
2022-09-01T22:07:17.412Z,93367.91
2022-09-01T22:12:20.241Z,93372.25
2022-09-01T22:17:23.142Z,93371.66
2022-09-01T22:22:25.990Z,93364.66
2022-09-01T22:27:28.803Z,93371.50
2022-09-01T22:32:34.031Z,93346.34
2022-09-01T22:37:38.006Z,93359.47
2022-09-01T22:42:40.991Z,93389.53
2022-09-01T22:47:44.125Z,93352.03
2022-09-01T22:52:47.024Z,93356.28
2022-09-01T22:57:49.850Z,93383.22
2022-09-01T23:02:53.375Z,93389.94
2022-09-01T23:07:58.673Z,93397.97
2022-09-01T23:13:01.780Z,93377.72
2022-09-01T23:18:04.812Z,93382.81
2022-09-01T23:23:08.024Z,93381.75
2022-09-01T23:28:14.631Z,93379.44
2022-09-01T23:33:19.204Z,93367.31
2022-09-01T23:38:24.371Z,93373.38
2022-09-01T23:43:27.747Z,93361.19
2022-09-01T23:48:31.333Z,93352.22
2022-09-01T23:53:35.532Z,93356.25
2022-09-01T23:58:38.889Z,93371.69
